Time;durP1;ratioP1;P1;durP2;ratioP2;P2;SDS_P1;SDS_P2;PMS_P1;PMS_P2;Temp;Humidity;BMP_temperature;BMP_pressure;BME280_temperature;BME280_humidity;BME280_pressure;Samples;Min_cycle;Max_cycle;Signal;HPM_P1;HPM_P2
2022/03/31 00:01:43;;;;;;;4.85;4.55;;;7.20;99.90;;;7.11;73.48;100183.44;5073006;28;20052;-68
2022/03/31 00:04:13;;;;;;;4.93;4.63;;;7.20;99.90;;;7.21;74.31;100205.31;5073042;28;20048;-67
2022/03/31 00:06:42;;;;;;;5.32;4.93;;;7.10;99.90;;;7.16;74.35;100191.31;5071714;28;20102;-68
2022/03/31 00:09:10;;;;;;;5.68;5.28;;;7.10;99.90;;;7.16;74.41;100197.44;5072990;28;20091;-67
2022/03/31 00:11:39;;;;;;;5.03;4.63;;;7.00;99.90;;;7.04;74.63;100171.19;5072751;28;20044;-67
2022/03/31 00:14:07;;;;;;;5.20;4.80;;;7.00;99.90;;;7.21;74.58;100197.44;5071766;28;20044;-67
2022/03/31 00:16:36;;;;;;;5.18;4.80;;;7.10;99.90;;;7.06;74.35;100185.19;5074779;28;20436;-67
2022/03/31 00:19:07;;;;;;;5.40;5.00;;;7.00;99.90;;;6.85;74.69;100184.34;5076944;28;20053;-68
2022/03/31 00:21:37;;;;;;;4.55;4.22;;;6.80;99.90;;;5.07;75.35;99885.03;5076820;28;20196;-68
2022/03/31 00:24:07;;;;;;;5.05;4.65;;;6.70;99.90;;;6.89;75.43;100188.72;5076585;28;20037;-68
2022/03/31 00:26:36;;;;;;;5.28;4.88;;;6.80;99.90;;;6.89;75.18;100180.84;5076488;28;20128;-68
2022/03/31 00:29:05;;;;;;;5.35;5.05;;;6.80;99.90;;;6.87;75.72;100174.69;5075416;28;20044;-68
2022/03/31 00:31:33;;;;;;;5.80;5.40;;;6.80;99.90;;;6.95;75.53;100183.47;5075622;28;20061;-68
2022/03/31 00:34:02;;;;;;;5.10;4.70;;;6.80;99.90;;;6.87;75.81;100178.19;5076206;28;20040;-68
2022/03/31 00:36:31;;;;;;;5.25;4.85;;;6.80;99.90;;;6.78;76.08;100157.19;5076753;28;20048;-68
2022/03/31 00:41:47;;;;;;;5.07;4.75;;;6.80;99.90;;;6.97;75.60;100179.03;5076288;28;20072;-68
2022/03/31 00:44:15;;;;;;;5.45;4.80;;;6.90;99.90;;;6.87;75.97;100180.81;5075893;28;20056;-68
2022/03/31 00:46:49;;;;;;;5.55;5.25;;;6.80;99.90;;;6.77;75.78;100184.34;5076435;28;20044;-68
2022/03/31 00:49:17;;;;;;;4.80;4.50;;;6.70;99.90;;;6.66;75.90;100180.81;5076307;28;20053;-68
2022/03/31 00:51:46;;;;;;;4.80;4.47;;;6.70;99.90;;;6.58;76.28;100174.69;5076172;28;20071;-68
2022/03/31 00:54:17;;;;;;;5.07;4.68;;;6.60;99.90;;;6.62;76.48;100178.22;5076345;28;20048;-68
2022/03/31 00:56:46;;;;;;;5.47;4.97;;;6.50;99.90;;;6.57;76.56;100172.94;5075972;28;20487;-68
2022/03/31 00:59:14;;;;;;;4.60;4.30;;;6.50;99.90;;;6.64;76.66;100174.69;5076083;28;20068;-68
2022/03/31 01:01:46;;;;;;;5.57;5.05;;;6.50;99.90;;;6.59;76.79;100175.56;5076137;28;20086;-68
2022/03/31 01:04:15;;;;;;;5.72;5.32;;;6.50;99.90;;;6.63;76.86;100172.06;5075873;28;20036;-68
2022/03/31 01:06:44;;;;;;;5.03;4.72;;;6.50;99.90;;;6.55;76.86;100169.44;5075708;28;20185;-68
2022/03/31 01:09:15;;;;;;;4.90;4.53;;;6.50;99.90;;;6.52;76.87;100166.84;5075860;28;20041;-68
2022/03/31 01:11:45;;;;;;;5.38;4.97;;;6.50;99.90;;;6.49;77.28;100155.41;5075733;28;20051;-68
2022/03/31 01:14:14;;;;;;;5.57;5.20;;;6.40;99.90;;;6.54;77.31;100153.69;5075691;28;20055;-68
2022/03/31 01:16:43;;;;;;;5.07;4.70;;;6.40;99.90;;;6.54;77.54;100151.94;5075541;28;20498;-68
2022/03/31 01:19:14;;;;;;;5.10;4.60;;;6.50;99.90;;;6.50;77.13;100144.94;5076139;28;20068;-68
2022/03/31 01:21:45;;;;;;;5.53;5.05;;;6.40;99.90;;;6.36;77.37;100152.81;5074514;28;20048;-67
2022/03/31 01:24:17;;;;;;;5.45;5.15;;;6.30;99.90;;;6.25;78.03;100146.66;5075572;28;20052;-68
2022/03/31 01:26:46;;;;;;;5.68;5.13;;;6.20;99.90;;;6.34;77.90;100145.78;5075682;28;20442;-68
2022/03/31 01:29:14;;;;;;;5.15;4.78;;;6.20;99.90;;;6.31;78.38;100144.03;5073592;28;20053;-68
2022/03/31 01:31:43;;;;;;;5.82;5.43;;;6.20;99.90;;;6.34;78.13;100149.31;5075331;28;20394;-68
2022/03/31 01:34:11;;;;;;;5.43;5.03;;;6.20;99.90;;;6.38;78.04;100145.81;5075242;28;20494;-68
2022/03/31 01:36:40;;;;;;;6.07;5.68;;;6.30;99.90;;;6.28;78.05;100143.16;5075476;28;20040;-68
2022/03/31 01:39:08;;;;;;;6.60;6.00;;;6.20;99.90;;;6.28;78.03;100144.03;5075169;28;20078;-68
2022/03/31 01:41:38;;;;;;;6.05;5.55;;;6.20;99.90;;;6.26;77.63;100144.91;5075100;28;20046;-68
2022/03/31 01:44:06;;;;;;;6.03;5.53;;;6.20;99.90;;;6.16;77.85;100141.41;5107762;28;20486;-68
2022/03/31 01:46:35;;;;;;;5.95;5.45;;;6.10;99.90;;;6.22;77.69;100144.03;5074951;28;20306;-68
2022/03/31 01:49:03;;;;;;;6.43;5.93;;;6.20;99.90;;;6.12;77.69;100138.75;5074913;28;20039;-68
2022/03/31 01:51:31;;;;;;;6.68;6.07;;;6.10;99.90;;;6.15;78.27;100129.16;5074941;28;20072;-68
2022/03/31 01:54:00;;;;;;;5.70;5.25;;;6.10;99.90;;;6.14;78.55;100135.25;5073815;28;20036;-68
2022/03/31 01:56:28;;;;;;;5.95;5.55;;;6.10;99.90;;;6.02;78.71;100137.00;5074843;28;20037;-68
2022/03/31 01:58:58;;;;;;;6.15;5.57;;;5.90;99.90;;;6.11;78.89;100139.66;5074767;28;20074;-68
2022/03/31 02:01:27;;;;;;;8.10;5.43;;;6.00;99.90;;;6.05;78.83;100135.25;5075069;28;20044;-68
2022/03/31 02:03:55;;;;;;;6.13;5.60;;;6.00;99.90;;;5.98;78.98;100141.34;5074642;28;20028;-67
2022/03/31 02:06:23;;;;;;;5.70;5.30;;;6.00;99.90;;;5.90;79.51;100135.25;5074559;28;20091;-68
2022/03/31 02:08:56;;;;;;;6.35;5.85;;;5.90;99.90;;;5.95;79.58;100120.38;5074626;28;20093;-68
2022/03/31 02:11:25;;;;;;;6.22;5.72;;;5.90;99.90;;;6.07;79.49;100127.38;5074964;28;20048;-68
2022/03/31 02:13:54;;;;;;;6.37;5.97;;;6.00;99.90;;;5.95;79.40;100128.25;5074663;28;20064;-68
2022/03/31 02:16:23;;;;;;;5.60;5.20;;;6.00;99.90;;;6.11;79.76;100129.13;5074326;28;20098;-68
2022/03/31 02:18:52;;;;;;;6.25;5.85;;;6.00;99.90;;;6.21;79.38;100123.03;5074406;28;20128;-68
2022/03/31 02:21:20;;;;;;;5.50;5.10;;;6.10;99.90;;;6.14;79.49;100134.38;5075027;28;20115;-68
2022/03/31 02:23:49;;;;;;;6.53;6.03;;;6.10;99.90;;;6.12;79.00;100121.25;5074307;28;20037;-67
2022/03/31 02:26:17;;;;;;;6.80;6.30;;;6.10;99.90;;;6.21;79.22;100116.00;5074222;28;20041;-67
2022/03/31 02:28:46;;;;;;;5.90;5.40;;;6.10;99.90;;;6.11;79.25;100119.53;5074575;28;20441;-68
2022/03/31 02:31:14;;;;;;;6.03;5.53;;;6.10;99.90;;;6.14;79.29;100116.88;5073995;28;20039;-67
2022/03/31 02:33:44;;;;;;;5.68;5.18;;;6.10;99.90;;;6.25;79.56;100112.50;5074595;28;20064;-67
2022/03/31 02:36:12;;;;;;;6.15;5.45;;;6.10;99.90;;;6.20;79.65;100109.03;5074477;28;20095;-67
2022/03/31 02:38:41;;;;;;;7.72;5.40;;;6.10;99.90;;;6.30;79.17;100109.91;5073800;28;20047;-67
2022/03/31 02:41:09;;;;;;;5.90;5.30;;;6.20;99.90;;;6.35;78.97;100106.41;5073494;28;20048;-67
2022/03/31 02:43:37;;;;;;;6.82;5.80;;;6.30;99.90;;;6.34;78.98;100096.78;5073751;28;20127;-67
2022/03/31 02:46:06;;;;;;;7.55;5.25;;;6.30;99.90;;;6.19;78.69;100090.66;5074087;28;20041;-67
2022/03/31 02:48:36;;;;;;;6.57;5.40;;;6.20;99.90;;;6.20;79.01;100095.00;5073720;28;20123;-69
2022/03/31 02:51:05;;;;;;;6.30;5.80;;;6.10;99.90;;;6.13;79.40;100093.28;5074310;28;20445;-67
2022/03/31 02:56:20;;;;;;;6.00;5.50;;;6.10;99.90;;;6.28;79.34;100102.03;5062690;28;20624;-66
2022/03/31 02:58:49;;;;;;;5.90;5.40;;;6.20;99.90;;;6.19;79.25;100080.16;5073939;28;20044;-67
2022/03/31 03:01:17;;;;;;;8.00;6.43;;;6.20;99.90;;;6.34;79.25;100101.16;5073645;28;20045;-67
2022/03/31 03:03:46;;;;;;;7.00;6.35;;;6.30;99.90;;;6.11;79.25;100081.91;5073599;28;20049;-66
2022/03/31 03:06:16;;;;;;;7.95;6.25;;;6.10;99.90;;;6.24;79.47;100092.41;5074163;28;20537;-66
2022/03/31 03:08:45;;;;;;;6.30;5.80;;;6.10;99.90;;;6.31;79.22;100088.88;5073401;28;20044;-66
2022/03/31 03:11:14;;;;;;;6.55;6.05;;;6.20;99.90;;;6.18;79.60;100084.53;5073569;28;20055;-66
2022/03/31 03:13:42;;;;;;;6.65;6.15;;;6.10;99.90;;;6.09;79.15;100089.78;5074158;28;20049;-67
2022/03/31 03:16:11;;;;;;;6.82;6.13;;;6.00;99.90;;;6.24;79.00;100094.16;5073430;28;20094;-66
2022/03/31 03:18:41;;;;;;;6.65;6.00;;;6.10;99.90;;;6.31;79.38;100101.13;5073380;28;20049;-67
2022/03/31 03:21:10;;;;;;;6.17;5.77;;;6.20;99.90;;;6.13;79.16;100048.66;5073512;28;20040;-66
2022/03/31 03:23:42;;;;;;;5.78;5.32;;;6.20;99.90;;;6.46;78.74;100097.66;5073692;28;20649;-66
2022/03/31 03:26:10;;;;;;;7.45;5.82;;;6.30;99.90;;;5.98;78.41;100033.75;5073560;28;20048;-66
2022/03/31 03:28:39;;;;;;;6.70;6.10;;;6.20;99.90;;;6.33;78.86;100081.00;5073179;28;20423;-66
2022/03/31 03:31:11;;;;;;;6.30;5.80;;;6.30;99.90;;;6.47;78.40;100094.13;5073418;28;20140;-66
2022/03/31 03:33:41;;;;;;;7.05;6.45;;;6.30;99.90;;;6.30;78.33;100065.25;5073147;28;20078;-65
2022/03/31 03:36:12;;;;;;;6.47;5.95;;;6.40;99.90;;;6.44;78.44;100094.16;5073379;28;20161;-66
2022/03/31 03:38:42;;;;;;;8.02;7.25;;;6.30;99.90;;;6.52;78.36;100093.28;5073373;28;20064;-66
2022/03/31 03:41:12;;;;;;;7.57;6.80;;;6.40;99.90;;;6.56;78.08;100096.78;5073061;28;20044;-66
2022/03/31 03:43:42;;;;;;;7.57;6.88;;;6.40;99.90;;;6.52;78.57;100095.91;5073019;28;20060;-67
2022/03/31 03:46:11;;;;;;;8.40;7.70;;;6.40;99.90;;;6.60;78.31;100094.13;5073658;28;20094;-66
2022/03/31 03:48:40;;;;;;;6.93;6.35;;;6.40;99.90;;;4.40;77.99;99727.78;5073325;28;20045;-66
2022/03/31 03:51:09;;;;;;;7.57;6.38;;;6.40;99.90;;;6.57;78.24;100095.88;5072531;28;20048;-66
2022/03/31 03:53:37;;;;;;;8.10;6.75;;;6.40;99.90;;;6.63;78.33;100093.25;5073228;28;20091;-66
2022/03/31 03:56:07;;;;;;;7.18;6.47;;;6.50;99.90;;;6.57;78.36;100093.25;5071855;28;20059;-67
2022/03/31 03:58:36;;;;;;;7.07;6.47;;;6.40;99.90;;;6.31;78.55;100062.63;5072974;28;20041;-66
2022/03/31 04:01:04;;;;;;;7.03;6.38;;;6.40;99.90;;;6.63;78.48;100080.13;5073359;28;20121;-66
2022/03/31 04:03:33;;;;;;;7.03;6.28;;;6.50;99.90;;;6.64;78.38;100089.75;5072786;28;20050;-66
2022/03/31 04:06:02;;;;;;;8.02;5.93;;;6.50;99.90;;;6.61;78.32;100090.63;5072762;28;20044;-63
2022/03/31 04:08:30;;;;;;;6.70;6.05;;;6.40;99.90;;;6.67;78.59;100087.13;5071620;28;20098;-62
2022/03/31 04:10:58;;;;;;;6.15;5.65;;;6.50;99.90;;;6.67;78.66;100079.22;5072657;28;20479;-65
2022/03/31 04:13:28;;;;;;;6.32;5.82;;;6.60;99.90;;;6.93;78.11;100087.97;5072959;28;20406;-64
2022/03/31 04:15:56;;;;;;;6.33;5.73;;;6.70;99.90;;;6.98;77.59;100091.44;5073245;28;20498;-64
2022/03/31 04:18:25;;;;;;;6.90;6.25;;;6.80;99.90;;;6.97;77.62;100084.41;5072879;28;20373;-65
2022/03/31 04:20:54;;;;;;;6.30;5.80;;;6.80;99.90;;;7.01;77.44;100086.16;5072857;28;20044;-66
2022/03/31 04:23:22;;;;;;;6.03;5.53;;;6.80;99.90;;;7.04;77.03;100079.16;5072597;28;20044;-68
2022/03/31 04:25:50;;;;;;;6.32;5.82;;;6.80;99.90;;;6.97;77.29;100085.31;5072856;28;20132;-68
2022/03/31 04:28:19;;;;;;;6.97;5.82;;;6.80;99.90;;;7.01;77.07;100080.91;5072488;28;20082;-68
2022/03/31 04:30:49;;;;;;;7.10;6.07;;;6.80;99.90;;;6.95;76.95;100065.19;5072587;28;20048;-68
2022/03/31 04:33:17;;;;;;;7.00;6.40;;;6.80;99.90;;;7.01;76.89;100071.28;5072760;28;20397;-68
2022/03/31 04:35:46;;;;;;;6.60;6.00;;;6.80;99.90;;;7.01;77.06;100067.75;5072746;28;20123;-67
2022/03/31 04:38:14;;;;;;;7.70;7.00;;;6.80;99.90;;;6.76;77.14;100059.06;5072533;28;20045;-68
2022/03/31 04:40:43;;;;;;;7.03;6.43;;;6.70;99.90;;;6.71;77.48;100050.34;5072736;28;20041;-68
2022/03/31 04:43:11;;;;;;;7.28;6.68;;;6.70;99.90;;;6.75;77.68;100069.59;5072185;28;20056;-67
2022/03/31 04:45:41;;;;;;;6.68;6.10;;;6.60;99.90;;;6.87;77.61;100072.19;5072481;28;20136;-67
2022/03/31 04:48:13;;;;;;;7.35;6.57;;;6.70;99.90;;;6.69;77.87;100064.34;5072320;28;20482;-67
2022/03/31 04:50:41;;;;;;;7.00;6.35;;;6.60;99.90;;;6.76;77.84;100066.06;5072772;28;20056;-68
2022/03/31 04:53:14;;;;;;;7.25;6.63;;;6.60;99.90;;;6.75;77.94;100056.44;5072417;28;20041;-68
2022/03/31 04:55:42;;;;;;;9.20;6.70;;;6.60;99.90;;;6.65;77.40;100054.72;5072372;28;20048;-68
2022/03/31 04:58:14;;;;;;;7.63;6.85;;;6.60;99.90;;;6.60;77.45;100057.34;5072652;28;20085;-67
2022/03/31 05:00:42;;;;;;;8.73;6.72;;;6.50;99.90;;;6.63;77.40;100057.34;5072328;28;20048;-67
2022/03/31 05:03:13;;;;;;;9.15;7.80;;;6.50;99.90;;;6.67;77.30;100059.09;5072515;28;20036;-68
2022/03/31 05:05:42;;;;;;;9.80;7.22;;;6.50;99.90;;;6.72;77.69;100062.59;5075873;28;20048;-68
2022/03/31 05:08:11;;;;;;;10.25;7.53;;;6.60;99.90;;;6.65;77.21;100049.47;5075667;28;20079;-67
2022/03/31 05:10:40;;;;;;;10.85;7.65;;;6.60;99.90;;;6.76;77.24;100068.69;5075603;28;20045;-68
2022/03/31 05:13:08;;;;;;;7.70;6.90;;;6.60;99.90;;;6.67;77.09;100047.72;5075678;28;20068;-68
2022/03/31 05:15:37;;;;;;;8.43;7.38;;;6.60;99.90;;;6.70;77.18;100063.44;5075503;28;20045;-68
2022/03/31 05:18:06;;;;;;;8.98;7.00;;;6.60;99.90;;;6.70;77.65;100069.59;5075854;28;20079;-68
2022/03/31 05:20:36;;;;;;;11.90;8.15;;;6.60;99.90;;;6.68;77.25;100068.72;5075527;28;20512;-68
2022/03/31 05:23:05;;;;;;;10.52;7.82;;;6.60;99.90;;;6.73;77.39;100068.72;5075452;28;20048;-68
2022/03/31 05:25:34;;;;;;;12.18;8.15;;;6.60;99.90;;;6.75;77.21;100056.44;5075729;28;20168;-68
2022/03/31 05:28:02;;;;;;;9.77;7.50;;;6.60;99.90;;;6.65;77.11;100023.19;5075298;28;20041;-68
2022/03/31 05:30:30;;;;;;;10.48;8.38;;;6.70;99.90;;;6.83;77.39;100065.19;5075565;28;20483;-69
2022/03/31 05:33:00;;;;;;;9.90;7.78;;;6.70;99.90;;;6.89;77.18;100067.81;5075624;28;20124;-68
2022/03/31 05:35:29;;;;;;;12.35;8.35;;;6.70;99.90;;;6.70;77.28;100039.81;5075654;28;20036;-68
2022/03/31 05:37:58;;;;;;;11.73;8.57;;;6.70;99.90;;;6.90;77.58;100056.41;5075573;28;20078;-68
2022/03/31 05:40:27;;;;;;;10.98;7.97;;;6.70;99.90;;;6.89;77.01;100052.91;5075203;28;20398;-68
2022/03/31 05:42:56;;;;;;;12.32;8.18;;;6.70;99.90;;;6.72;77.33;100023.16;5075203;28;20052;-68
2022/03/31 05:45:25;;;;;;;10.90;8.05;;;6.70;99.90;;;6.89;77.04;100057.31;5075032;28;20066;-68
2022/03/31 05:47:54;;;;;;;10.63;8.45;;;6.70;99.90;;;7.00;76.84;100058.13;5075290;28;20079;-68
2022/03/31 05:50:23;;;;;;;11.15;7.53;;;6.80;99.90;;;6.68;76.90;100007.44;5075234;28;20119;-69
2022/03/31 05:52:51;;;;;;;12.18;9.30;;;6.80;99.90;;;6.95;76.82;100058.13;5074115;28;20403;-68
2022/03/31 05:55:21;;;;;;;11.27;7.97;;;6.80;99.90;;;6.95;76.89;100054.66;5073877;28;20072;-68
2022/03/31 05:57:50;;;;;;;13.98;8.73;;;6.80;99.90;;;7.03;76.85;100058.13;5075166;28;20051;-68
2022/03/31 06:00:20;;;;;;;12.88;9.23;;;6.80;99.90;;;7.02;76.87;100056.38;5075002;28;20102;-69
2022/03/31 06:02:53;;;;;;;12.77;8.25;;;6.80;99.90;;;7.06;76.92;100063.38;5074953;28;20044;-69
2022/03/31 06:05:23;;;;;;;15.27;9.68;;;6.90;99.90;;;7.07;76.95;100063.38;5073475;28;20052;-69
2022/03/31 06:07:52;;;;;;;10.52;8.30;;;6.90;99.90;;;7.11;76.69;100061.59;5074543;28;20052;-68
2022/03/31 06:10:22;;;;;;;12.10;8.85;;;6.90;99.90;;;7.12;77.04;100066.84;5074713;28;20032;-68
2022/03/31 06:12:51;;;;;;;10.93;9.52;;;6.90;99.90;;;7.18;76.67;100058.09;5074413;28;20379;-68
2022/03/31 06:15:19;;;;;;;12.05;9.35;;;7.00;99.90;;;7.13;76.59;100062.47;5074126;28;20041;-69
2022/03/31 06:17:48;;;;;;;11.23;9.27;;;7.00;99.90;;;7.10;76.72;100041.47;5074635;28;20051;-68
2022/03/31 06:20:16;;;;;;;11.20;9.23;;;7.00;99.90;;;7.28;76.52;100060.66;5074522;28;20120;-68
2022/03/31 06:22:45;;;;;;;9.80;8.80;;;7.10;99.90;;;7.30;76.61;100073.78;5074106;28;20045;-68
2022/03/31 06:25:14;;;;;;;14.77;9.10;;;7.10;99.90;;;7.27;76.37;100084.34;5074019;28;20047;-68
2022/03/31 06:27:47;;;;;;;10.48;8.25;;;7.10;99.90;;;7.34;77.10;100070.25;5074408;28;20067;-67
2022/03/31 06:30:16;;;;;;;9.52;8.45;;;7.10;99.90;;;7.45;76.66;100076.38;5074112;28;20067;-68
2022/03/31 06:32:45;;;;;;;10.52;8.20;;;7.20;99.90;;;7.34;76.61;100032.59;5074194;28;20413;-62
2022/03/31 06:35:15;;;;;;;12.55;7.88;;;7.40;99.90;;;7.62;75.88;100069.25;5074006;28;20068;-62
2022/03/31 06:37:45;;;;;;;8.63;7.55;;;7.40;99.90;;;7.71;75.53;100074.47;5074019;28;20036;-63
2022/03/31 06:40:16;;;;;;;8.70;7.87;;;7.50;99.90;;;7.86;74.89;100065.59;5089877;28;20059;-63
2022/03/31 06:42:48;;;;;;;12.55;7.53;;;7.60;99.90;;;7.87;74.55;100056.81;5073654;28;20294;-62
2022/03/31 06:45:18;;;;;;;12.93;8.20;;;7.70;99.90;;;8.00;73.91;100056.72;5074234;28;20041;-63
2022/03/31 06:47:56;;;;;;;12.38;7.68;;;7.80;99.90;;;8.10;73.75;100060.16;5073867;28;20044;-62
2022/03/31 06:50:31;;;;;;;10.52;7.28;;;7.90;99.90;;;7.85;73.59;99998.03;5073735;28;20052;-62
2022/03/31 06:53:00;;;;;;;7.78;6.97;;;8.00;99.90;;;8.47;73.35;100063.41;5073978;28;20056;-65
2022/03/31 06:55:29;;;;;;;11.45;7.28;;;8.20;99.90;;;8.65;72.84;100065.88;5073720;28;20462;-68
2022/03/31 06:57:59;;;;;;;10.77;6.28;;;8.40;99.90;;;8.70;71.37;100064.06;5073648;28;20044;-67
2022/03/31 07:00:29;;;;;;;9.33;6.70;;;8.50;99.90;;;8.72;71.50;100042.06;5073585;28;20044;-67
2022/03/31 07:02:59;;;;;;;;;;;8.70;99.90;;;8.95;70.48;100076.09;5074326;28;20664;-67
2022/03/31 07:05:28;;;;;;;10.38;5.95;;;8.80;99.90;;;9.14;70.48;100068.88;5073776;28;19921;-67
2022/03/31 07:07:59;;;;;;;9.00;6.22;;;8.90;99.90;;;9.19;69.38;100069.69;5073475;28;20379;-67
2022/03/31 07:10:27;;;;;;;9.80;6.50;;;9.00;99.90;;;9.28;69.18;100069.56;5073344;28;20036;-67
2022/03/31 07:12:57;;;;;;;6.95;6.15;;;9.10;99.90;;;9.15;68.74;100068.84;5073629;28;20470;-67
2022/03/31 07:15:27;;;;;;;7.18;5.95;;;9.00;99.90;;;8.91;68.75;100074.38;5073608;28;20037;-66
2022/03/31 07:17:55;;;;;;;9.07;5.30;;;8.90;99.90;;;9.02;68.60;100077.78;5073272;28;20082;-62
2022/03/31 07:20:24;;;;;;;6.60;5.22;;;8.80;99.90;;;8.82;68.79;100072.72;5073331;28;20048;-68
2022/03/31 07:22:53;;;;;;;8.98;5.85;;;8.70;99.90;;;8.87;69.37;100070.03;5073499;28;20071;-67
2022/03/31 07:25:22;;;;;;;7.13;5.68;;;8.60;99.90;;;8.86;69.50;100066.53;5072892;28;20123;-67
2022/03/31 07:27:51;;;;;;;8.82;5.90;;;8.70;99.90;;;8.84;69.28;100075.34;5073477;28;20393;-67
2022/03/31 07:30:23;;;;;;;9.45;5.63;;;8.70;99.90;;;8.90;69.92;100068.22;5073294;28;20036;-68
2022/03/31 07:32:54;;;;;;;8.50;6.22;;;8.70;99.90;;;8.93;70.52;100068.22;5073505;28;20056;-67
2022/03/31 07:35:26;;;;;;;9.88;6.07;;;8.70;99.90;;;8.31;70.06;99944.13;5073753;28;20198;-67
2022/03/31 07:37:55;;;;;;;11.77;5.93;;;8.80;99.90;;;8.89;69.45;100071.78;5073362;28;20055;-68
2022/03/31 07:40:26;;;;;;;12.43;5.43;;;8.80;99.90;;;8.70;70.14;100069.34;5073598;28;20465;-67
2022/03/31 07:42:55;;;;;;;7.80;5.80;;;8.60;99.90;;;7.92;69.71;99928.66;5072951;28;20056;-68
2022/03/31 07:45:26;;;;;;;8.68;5.70;;;8.50;99.90;;;8.78;70.29;100064.84;5072977;28;20052;-68
2022/03/31 07:47:54;;;;;;;10.48;5.70;;;8.60;99.90;;;8.85;70.25;100066.53;5073243;28;20052;-67
2022/03/31 07:50:23;;;;;;;9.70;6.32;;;8.70;99.90;;;9.09;71.49;100063.63;5072799;28;20036;-67
2022/03/31 07:52:51;;;;;;;6.43;5.80;;;8.80;99.90;;;9.18;70.95;100070.56;5072923;28;20044;-67
2022/03/31 07:55:20;;;;;;;9.95;6.00;;;9.00;99.90;;;9.35;70.88;100058.91;5073063;28;20037;-67
2022/03/31 07:57:51;;;;;;;6.43;5.75;;;9.20;99.90;;;9.36;69.42;100054.50;5071873;28;20383;-67
2022/03/31 08:00:20;;;;;;;8.63;6.85;;;9.20;99.90;;;9.50;69.06;100053.47;5073042;28;20045;-68
2022/03/31 08:02:52;;;;;;;8.70;6.33;;;9.40;99.90;;;9.39;68.49;100047.41;5073000;28;20036;-67
2022/03/31 08:05:22;;;;;;;7.22;6.38;;;9.30;99.90;;;9.51;68.35;100049.91;5073067;28;20040;-67
2022/03/31 08:07:52;;;;;;;7.75;6.18;;;9.40;99.90;;;9.30;67.12;100037.00;5072941;28;20475;-67
2022/03/31 08:10:21;;;;;;;8.73;6.47;;;9.30;99.90;;;9.30;67.25;100050.19;5072875;28;20071;-68
2022/03/31 08:12:50;;;;;;;6.88;5.95;;;9.20;99.90;;;9.29;67.72;100053.69;5072700;28;20048;-68
2022/03/31 08:15:19;;;;;;;8.80;6.63;;;9.20;99.90;;;9.06;67.59;100027.63;5072962;28;20045;-67
2022/03/31 08:17:48;;;;;;;7.80;6.38;;;9.10;99.90;;;9.14;67.35;100045.97;5073103;28;20051;-69
2022/03/31 08:20:19;;;;;;;8.50;6.50;;;9.00;99.90;;;8.50;67.55;99944.78;5073148;28;20052;-68
2022/03/31 08:22:49;;;;;;;10.00;6.38;;;9.00;99.90;;;9.06;67.38;100030.25;5072903;28;20091;-68
2022/03/31 08:25:18;;;;;;;7.82;6.95;;;9.00;99.90;;;9.23;67.68;100055.56;5072814;28;20037;-68
2022/03/31 08:27:47;;;;;;;7.97;6.60;;;9.10;99.90;;;9.27;67.46;100057.28;5088475;28;20457;-68
2022/03/31 08:30:23;;;;;;;7.03;6.40;;;9.10;99.90;;;9.26;67.79;100032.66;5072547;28;20509;-68
2022/03/31 08:32:52;;;;;;;8.82;6.30;;;9.20;99.90;;;9.45;67.83;100054.38;5072482;28;20135;-68
2022/03/31 08:35:24;;;;;;;7.00;6.40;;;9.30;99.90;;;9.52;67.14;100053.44;5072445;28;20098;-68
2022/03/31 08:37:53;;;;;;;7.28;6.55;;;9.40;99.90;;;9.60;67.24;100041.00;5074078;28;20052;-68
2022/03/31 08:40:21;;;;;;;6.78;6.18;;;9.50;99.90;;;9.71;66.92;100050.53;5076496;28;20037;-68
2022/03/31 08:42:50;;;;;;;6.95;6.35;;;9.50;99.90;;;9.79;66.78;100040.69;5076091;28;20046;-68
2022/03/31 08:45:20;;;;;;;7.15;5.78;;;9.60;99.90;;;9.91;65.99;100051.09;5076111;28;20072;-69
2022/03/31 08:47:51;;;;;;;11.48;6.18;;;9.70;99.90;;;9.83;65.93;100036.28;5076213;28;20037;-68
2022/03/31 08:50:23;;;;;;;6.68;6.15;;;9.70;99.90;;;9.90;65.46;100046.72;5076587;28;20040;-68
2022/03/31 08:52:53;;;;;;;6.78;6.15;;;9.80;99.90;;;9.86;65.34;100042.38;5076099;28;20051;-68
2022/03/31 08:55:22;;;;;;;9.20;6.32;;;9.70;99.90;;;9.77;65.20;100017.88;5074766;28;20052;-68
2022/03/31 08:57:54;;;;;;;6.68;6.07;;;9.70;99.90;;;8.20;65.39;99743.16;5091825;28;20048;-68
2022/03/31 09:00:25;;;;;;;6.28;5.72;;;9.80;99.90;;;9.79;65.15;100022.22;5075810;28;20132;-68
2022/03/31 09:02:59;;;;;;;;;;;9.70;99.90;;;9.93;64.39;100046.66;5076544;28;20079;-68
2022/03/31 09:05:37;;;;;;;6.70;6.00;;;9.80;99.90;;;9.69;64.40;100015.34;5075727;28;19924;-69
2022/03/31 09:08:09;;;;;;;10.05;8.00;;;9.80;99.90;;;9.85;64.89;100053.81;5075803;28;20059;-68
2022/03/31 09:10:44;;;;;;;7.30;6.50;;;9.70;99.90;;;9.78;65.34;100054.81;5075689;28;20044;-68
2022/03/31 09:13:23;;;;;;;7.22;5.93;;;9.60;99.90;;;9.67;64.98;100056.75;5075755;28;20486;-68
2022/03/31 09:15:56;;;;;;;5.80;5.30;;;9.50;99.90;;;9.60;64.90;100051.56;5076231;28;20044;-69
2022/03/31 09:18:28;;;;;;;6.15;5.55;;;9.40;99.90;;;9.51;65.26;100056.94;5075669;28;20047;-68
2022/03/31 09:21:01;;;;;;;5.65;5.15;;;9.40;99.90;;;9.51;65.09;100055.19;5075603;28;20517;-69
2022/03/31 09:23:32;;;;;;;6.28;5.70;;;9.40;99.90;;;9.32;65.12;100110.84;5074675;28;20136;-69
2022/03/31 09:26:09;;;;;;;7.90;6.22;;;9.30;99.90;;;9.44;65.47;100055.28;5075801;28;20044;-69
2022/03/31 09:28:38;;;;;;;6.40;5.82;;;9.30;99.90;;;9.41;65.50;100061.47;5074356;28;20391;-69
2022/03/31 09:31:10;;;;;;;5.95;5.45;;;9.20;99.90;;;9.39;65.73;100052.69;5075231;28;20091;-69
2022/03/31 09:33:41;;;;;;;6.03;5.53;;;9.20;99.90;;;9.29;65.80;100047.59;5075374;28;20482;-68
2022/03/31 09:36:15;;;;;;;6.03;5.53;;;9.10;99.90;;;9.35;66.00;100056.28;5075776;28;20092;-69
2022/03/31 09:38:52;;;;;;;7.50;5.63;;;9.10;99.90;;;9.42;66.02;100051.81;5075268;28;20557;-68
2022/03/31 09:41:24;;;;;;;8.95;6.35;;;9.20;99.90;;;9.26;65.71;100026.50;5075223;28;20101;-68
2022/03/31 09:43:56;;;;;;;6.30;5.75;;;9.30;99.90;;;9.54;65.73;100055.13;5075590;28;20107;-68
2022/03/31 09:46:27;;;;;;;6.30;5.80;;;9.30;99.90;;;9.23;66.24;100024.78;5075402;28;20106;-69
2022/03/31 09:49:15;;;;;;;6.13;5.63;;;9.30;99.90;;;9.52;66.29;100054.31;5074676;28;20036;-69
2022/03/31 09:51:48;;;;;;;6.63;6.03;;;9.40;99.90;;;9.72;66.71;100040.81;5075242;28;20110;-68
2022/03/31 09:54:18;;;;;;;6.78;6.18;;;9.50;99.90;;;9.96;66.88;100043.09;5075210;28;20047;-69
2022/03/31 09:56:47;;;;;;;5.82;5.35;;;9.70;99.90;;;9.99;65.28;100016.63;5075099;28;20072;-69
2022/03/31 09:59:17;;;;;;;5.47;5.07;;;9.90;99.90;;;10.20;64.65;100044.53;5074771;28;20482;-69
2022/03/31 10:01:53;;;;;;;5.55;5.13;;;10.00;99.90;;;10.26;63.71;100068.22;5074728;28;20066;-68
2022/03/31 10:04:22;;;;;;;5.45;5.05;;;10.10;99.90;;;10.24;62.00;100046.22;5074706;28;20119;-68
2022/03/31 10:06:57;;;;;;;4.90;4.50;;;10.10;99.90;;;10.17;61.87;100045.44;5074633;27;20132;-70
2022/03/31 10:09:27;;;;;;;5.10;4.70;;;10.10;99.90;;;10.15;61.92;100031.38;5074645;28;20051;-68
2022/03/31 10:12:04;;;;;;;4.70;4.40;;;10.10;99.90;;;10.33;62.05;100023.16;5074656;28;20139;-68
2022/03/31 10:14:44;;;;;;;5.20;4.80;;;10.20;99.90;;;10.51;62.14;100022.81;5074492;28;20086;-68
2022/03/31 10:17:13;;;;;;;5.20;4.70;;;10.30;99.90;;;10.77;61.09;100043.50;5074776;28;20036;-68
2022/03/31 10:19:45;;;;;;;4.80;4.50;;;10.60;99.90;;;10.78;60.27;100034.69;5074306;28;20325;-68
2022/03/31 10:25:02;;;;;;;5.30;4.90;;;10.60;99.90;;;10.71;59.43;100041.84;5074111;28;20052;-66
2022/03/31 10:27:33;;;;;;;5.80;5.40;;;10.60;99.90;;;10.87;60.27;100034.50;5074243;28;20040;-66
2022/03/31 10:30:13;;;;;;;5.65;5.25;;;10.70;99.90;;;10.99;59.54;100025.47;5073959;28;20075;-65
2022/03/31 10:32:54;;;;;;;5.80;5.40;;;10.80;99.90;;;11.08;58.98;99999.69;5074030;28;20548;-67
2022/03/31 10:35:26;;;;;;;5.20;4.80;;;11.00;99.90;;;11.39;58.55;100034.31;5074137;28;20648;-67
2022/03/31 10:37:59;;;;;;;5.38;4.97;;;11.20;99.90;;;11.45;57.17;100021.84;5074281;28;20094;-67
2022/03/31 10:40:38;;;;;;;4.95;4.65;;;11.30;99.90;;;11.67;57.24;100004.59;5073972;28;20049;-67
2022/03/31 10:43:07;;;;;;;4.78;4.47;;;11.50;99.90;;;12.01;57.49;100023.22;5073873;28;20048;-68
2022/03/31 10:45:39;;;;;;;5.00;4.70;;;11.80;99.90;;;12.38;55.60;100021.44;5074454;28;20409;-68